White Pine, Michigan
Current Conditions -  °F | °C
As of 11:15 AM on Wednesday 22 Oct 2014 (Local Time) from KIWD Reporting Station
Clear Clear  
Wind Chill: 37°   Ceiling: Unl
Heat Index: 45°   Visibility: 10mi
Dew Point: 34°   Wind: 17mph
Humidity: 66%   Direction: 170°S
Pressure: 30.25"   Gusts: 21mph
Location:  46.75°N, 89.58°W
Report Text: KIWD 221515Z AUTO 17015G18KT 10SM CLR 07/01 A3025 RMK AO1
Loading
Personal Weather Stations






























Interactive Weather Map
Tropical Storm Tracking
New forecast layout! Learn more

10-Day Weather Forecast

Advertisements
Track Severe Weather on mobile